sensor_id;sensor_type;location;lat;lon;timestamp;P1;durP1;ratioP1;P2;durP2;ratioP2
79124;SDS011;68527;39.470;-0.376;2023-05-16T00:01:20;3.60;;;2.60;;
79124;SDS011;68527;39.470;-0.376;2023-05-16T00:03:47;3.90;;;3.20;;
79124;SDS011;68527;39.470;-0.376;2023-05-16T00:08:39;4.20;;;2.40;;
79124;SDS011;68527;39.470;-0.376;2023-05-16T00:11:05;5.10;;;3.10;;
79124;SDS011;68527;39.470;-0.376;2023-05-16T00:15:56;4.20;;;2.70;;
79124;SDS011;68527;39.470;-0.376;2023-05-16T00:18:23;4.30;;;2.80;;
79124;SDS011;68527;39.470;-0.376;2023-05-16T00:20:50;2.90;;;2.50;;
79124;SDS011;68527;39.470;-0.376;2023-05-16T00:23:17;3.70;;;2.40;;
79124;SDS011;68527;39.470;-0.376;2023-05-16T00:28:08;4.70;;;2.70;;
79124;SDS011;68527;39.470;-0.376;2023-05-16T00:32:59;3.40;;;2.30;;
79124;SDS011;68527;39.470;-0.376;2023-05-16T00:35:25;3.10;;;2.40;;
79124;SDS011;68527;39.470;-0.376;2023-05-16T00:37:51;2.40;;;2.10;;
79124;SDS011;68527;39.470;-0.376;2023-05-16T00:42:42;3.50;;;2.90;;
79124;SDS011;68527;39.470;-0.376;2023-05-16T00:45:08;4.10;;;3.00;;
79124;SDS011;68527;39.470;-0.376;2023-05-16T00:47:34;2.70;;;2.00;;
79124;SDS011;68527;39.470;-0.376;2023-05-16T00:50:01;2.70;;;2.30;;
79124;SDS011;68527;39.470;-0.376;2023-05-16T00:52:27;2.90;;;2.00;;
79124;SDS011;68527;39.470;-0.376;2023-05-16T00:54:53;2.60;;;2.30;;
79124;SDS011;68527;39.470;-0.376;2023-05-16T00:59:44;4.00;;;2.10;;
79124;SDS011;68527;39.470;-0.376;2023-05-16T01:02:11;4.10;;;2.30;;
79124;SDS011;68527;39.470;-0.376;2023-05-16T01:04:37;3.70;;;2.30;;
79124;SDS011;68527;39.470;-0.376;2023-05-16T01:07:04;3.30;;;2.30;;
79124;SDS011;68527;39.470;-0.376;2023-05-16T01:09:29;2.50;;;2.00;;
79124;SDS011;68527;39.470;-0.376;2023-05-16T01:12:16;3.10;;;1.90;;
79124;SDS011;68527;39.470;-0.376;2023-05-16T01:15:00;2.70;;;2.00;;
79124;SDS011;68527;39.470;-0.376;2023-05-16T01:26:04;3.00;;;1.70;;
79124;SDS011;68527;39.470;-0.376;2023-05-16T01:28:38;3.10;;;2.00;;
79124;SDS011;68527;39.470;-0.376;2023-05-16T01:31:04;2.70;;;2.00;;
79124;SDS011;68527;39.470;-0.376;2023-05-16T01:33:30;2.20;;;1.70;;
79124;SDS011;68527;39.470;-0.376;2023-05-16T01:44:06;2.40;;;1.70;;
79124;SDS011;68527;39.470;-0.376;2023-05-16T01:46:39;2.70;;;2.00;;
79124;SDS011;68527;39.470;-0.376;2023-05-16T01:49:12;2.80;;;1.70;;
79124;SDS011;68527;39.470;-0.376;2023-05-16T01:51:42;2.70;;;1.90;;
79124;SDS011;68527;39.470;-0.376;2023-05-16T01:54:11;2.20;;;1.50;;
79124;SDS011;68527;39.470;-0.376;2023-05-16T01:56:37;2.20;;;1.60;;
79124;SDS011;68527;39.470;-0.376;2023-05-16T01:59:03;1.60;;;1.30;;
79124;SDS011;68527;39.470;-0.376;2023-05-16T02:01:29;1.80;;;1.50;;
79124;SDS011;68527;39.470;-0.376;2023-05-16T02:03:55;2.30;;;1.80;;
79124;SDS011;68527;39.470;-0.376;2023-05-16T02:06:21;2.80;;;1.90;;
79124;SDS011;68527;39.470;-0.376;2023-05-16T02:08:48;2.40;;;1.50;;
79124;SDS011;68527;39.470;-0.376;2023-05-16T02:11:14;1.60;;;1.40;;
79124;SDS011;68527;39.470;-0.376;2023-05-16T02:16:05;2.40;;;1.70;;
79124;SDS011;68527;39.470;-0.376;2023-05-16T02:18:31;1.70;;;1.20;;
79124;SDS011;68527;39.470;-0.376;2023-05-16T02:20:56;3.20;;;1.50;;
79124;SDS011;68527;39.470;-0.376;2023-05-16T02:23:22;2.20;;;1.80;;
79124;SDS011;68527;39.470;-0.376;2023-05-16T02:28:13;3.20;;;1.20;;
79124;SDS011;68527;39.470;-0.376;2023-05-16T02:30:39;4.20;;;1.40;;
79124;SDS011;68527;39.470;-0.376;2023-05-16T02:33:05;2.50;;;1.40;;
79124;SDS011;68527;39.470;-0.376;2023-05-16T02:35:30;2.10;;;1.50;;
79124;SDS011;68527;39.470;-0.376;2023-05-16T02:37:56;3.30;;;1.50;;
79124;SDS011;68527;39.470;-0.376;2023-05-16T02:42:47;2.00;;;1.30;;
79124;SDS011;68527;39.470;-0.376;2023-05-16T02:47:38;2.10;;;1.30;;
79124;SDS011;68527;39.470;-0.376;2023-05-16T02:50:04;3.10;;;1.30;;
79124;SDS011;68527;39.470;-0.376;2023-05-16T02:52:30;2.80;;;1.50;;
79124;SDS011;68527;39.470;-0.376;2023-05-16T02:57:21;2.30;;;1.50;;
79124;SDS011;68527;39.470;-0.376;2023-05-16T02:59:47;2.40;;;1.50;;
79124;SDS011;68527;39.470;-0.376;2023-05-16T03:04:37;2.80;;;1.30;;
79124;SDS011;68527;39.470;-0.376;2023-05-16T03:09:28;3.30;;;1.20;;
79124;SDS011;68527;39.470;-0.376;2023-05-16T03:14:19;2.40;;;1.30;;
79124;SDS011;68527;39.470;-0.376;2023-05-16T03:19:10;4.90;;;1.40;;
79124;SDS011;68527;39.470;-0.376;2023-05-16T03:21:36;1.70;;;1.20;;
79124;SDS011;68527;39.470;-0.376;2023-05-16T03:24:02;2.00;;;1.10;;
79124;SDS011;68527;39.470;-0.376;2023-05-16T03:26:28;3.60;;;1.00;;
79124;SDS011;68527;39.470;-0.376;2023-05-16T03:28:53;2.30;;;1.30;;
79124;SDS011;68527;39.470;-0.376;2023-05-16T03:31:19;2.20;;;1.10;;
79124;SDS011;68527;39.470;-0.376;2023-05-16T03:36:10;2.50;;;1.10;;
79124;SDS011;68527;39.470;-0.376;2023-05-16T03:41:01;1.50;;;1.10;;
79124;SDS011;68527;39.470;-0.376;2023-05-16T03:43:27;2.20;;;1.30;;
79124;SDS011;68527;39.470;-0.376;2023-05-16T03:45:53;2.70;;;1.60;;
79124;SDS011;68527;39.470;-0.376;2023-05-16T03:48:18;2.00;;;1.10;;
79124;SDS011;68527;39.470;-0.376;2023-05-16T03:50:44;2.50;;;1.30;;
79124;SDS011;68527;39.470;-0.376;2023-05-16T03:55:36;3.50;;;1.00;;
79124;SDS011;68527;39.470;-0.376;2023-05-16T03:58:01;2.20;;;1.30;;
79124;SDS011;68527;39.470;-0.376;2023-05-16T04:00:27;4.40;;;1.40;;
79124;SDS011;68527;39.470;-0.376;2023-05-16T04:02:52;1.80;;;1.10;;
79124;SDS011;68527;39.470;-0.376;2023-05-16T04:05:18;3.00;;;1.10;;
79124;SDS011;68527;39.470;-0.376;2023-05-16T04:07:44;2.10;;;1.10;;
79124;SDS011;68527;39.470;-0.376;2023-05-16T04:12:35;2.30;;;1.30;;
79124;SDS011;68527;39.470;-0.376;2023-05-16T04:15:01;1.80;;;1.00;;
79124;SDS011;68527;39.470;-0.376;2023-05-16T04:17:28;1.70;;;1.20;;
79124;SDS011;68527;39.470;-0.376;2023-05-16T04:19:54;1.80;;;1.10;;
79124;SDS011;68527;39.470;-0.376;2023-05-16T04:22:23;3.60;;;1.30;;
79124;SDS011;68527;39.470;-0.376;2023-05-16T04:24:48;1.70;;;1.00;;
79124;SDS011;68527;39.470;-0.376;2023-05-16T04:27:15;2.20;;;1.10;;
79124;SDS011;68527;39.470;-0.376;2023-05-16T04:29:40;2.50;;;1.10;;
79124;SDS011;68527;39.470;-0.376;2023-05-16T04:32:06;2.30;;;1.00;;
79124;SDS011;68527;39.470;-0.376;2023-05-16T04:34:32;1.60;;;1.20;;
79124;SDS011;68527;39.470;-0.376;2023-05-16T04:37:01;1.60;;;1.00;;
79124;SDS011;68527;39.470;-0.376;2023-05-16T04:39:32;2.80;;;1.40;;
79124;SDS011;68527;39.470;-0.376;2023-05-16T04:42:00;2.00;;;1.10;;
79124;SDS011;68527;39.470;-0.376;2023-05-16T04:44:27;2.90;;;1.40;;
79124;SDS011;68527;39.470;-0.376;2023-05-16T04:49:19;1.90;;;1.00;;
79124;SDS011;68527;39.470;-0.376;2023-05-16T04:51:45;2.30;;;0.90;;
79124;SDS011;68527;39.470;-0.376;2023-05-16T04:54:12;2.40;;;1.10;;
79124;SDS011;68527;39.470;-0.376;2023-05-16T04:56:38;2.30;;;1.40;;
79124;SDS011;68527;39.470;-0.376;2023-05-16T04:59:03;1.80;;;0.80;;
79124;SDS011;68527;39.470;-0.376;2023-05-16T05:03:54;3.20;;;1.10;;
79124;SDS011;68527;39.470;-0.376;2023-05-16T05:06:20;2.40;;;1.00;;
79124;SDS011;68527;39.470;-0.376;2023-05-16T05:08:46;4.00;;;1.70;;
79124;SDS011;68527;39.470;-0.376;2023-05-16T05:11:12;11.20;;;3.30;;
79124;SDS011;68527;39.470;-0.376;2023-05-16T05:16:03;3.90;;;1.30;;
79124;SDS011;68527;39.470;-0.376;2023-05-16T05:18:30;3.40;;;1.40;;
79124;SDS011;68527;39.470;-0.376;2023-05-16T05:20:55;5.80;;;1.30;;
79124;SDS011;68527;39.470;-0.376;2023-05-16T05:23:22;15.90;;;3.90;;
79124;SDS011;68527;39.470;-0.376;2023-05-16T05:25:48;8.50;;;2.30;;
79124;SDS011;68527;39.470;-0.376;2023-05-16T05:28:14;8.00;;;2.40;;
79124;SDS011;68527;39.470;-0.376;2023-05-16T05:30:39;17.50;;;6.50;;
79124;SDS011;68527;39.470;-0.376;2023-05-16T05:33:05;19.60;;;5.80;;
79124;SDS011;68527;39.470;-0.376;2023-05-16T05:35:31;17.20;;;6.40;;
79124;SDS011;68527;39.470;-0.376;2023-05-16T05:40:22;24.90;;;8.90;;
79124;SDS011;68527;39.470;-0.376;2023-05-16T05:45:13;21.00;;;7.60;;
79124;SDS011;68527;39.470;-0.376;2023-05-16T05:47:40;22.50;;;7.00;;
79124;SDS011;68527;39.470;-0.376;2023-05-16T05:50:06;21.40;;;8.40;;
79124;SDS011;68527;39.470;-0.376;2023-05-16T05:52:32;22.20;;;7.50;;
79124;SDS011;68527;39.470;-0.376;2023-05-16T05:54:58;26.90;;;8.00;;
79124;SDS011;68527;39.470;-0.376;2023-05-16T05:57:24;21.40;;;7.00;;
79124;SDS011;68527;39.470;-0.376;2023-05-16T05:59:50;19.10;;;7.20;;
79124;SDS011;68527;39.470;-0.376;2023-05-16T06:04:41;23.90;;;8.30;;
79124;SDS011;68527;39.470;-0.376;2023-05-16T06:07:07;22.20;;;7.20;;
79124;SDS011;68527;39.470;-0.376;2023-05-16T06:09:32;19.60;;;7.90;;
79124;SDS011;68527;39.470;-0.376;2023-05-16T06:11:58;23.50;;;7.60;;
79124;SDS011;68527;39.470;-0.376;2023-05-16T06:14:24;18.90;;;6.90;;
79124;SDS011;68527;39.470;-0.376;2023-05-16T06:16:50;23.50;;;7.70;;
79124;SDS011;68527;39.470;-0.376;2023-05-16T06:19:15;20.80;;;7.30;;
79124;SDS011;68527;39.470;-0.376;2023-05-16T06:21:41;18.50;;;6.90;;
79124;SDS011;68527;39.470;-0.376;2023-05-16T06:24:08;24.10;;;7.20;;
79124;SDS011;68527;39.470;-0.376;2023-05-16T06:26:34;16.60;;;7.00;;
79124;SDS011;68527;39.470;-0.376;2023-05-16T06:29:00;16.90;;;6.30;;
79124;SDS011;68527;39.470;-0.376;2023-05-16T06:31:26;17.10;;;5.50;;
79124;SDS011;68527;39.470;-0.376;2023-05-16T06:36:17;20.20;;;6.70;;
79124;SDS011;68527;39.470;-0.376;2023-05-16T06:38:42;16.00;;;5.70;;
79124;SDS011;68527;39.470;-0.376;2023-05-16T06:41:08;19.50;;;6.20;;
79124;SDS011;68527;39.470;-0.376;2023-05-16T06:45:59;13.00;;;5.70;;
79124;SDS011;68527;39.470;-0.376;2023-05-16T06:50:50;21.10;;;5.70;;
79124;SDS011;68527;39.470;-0.376;2023-05-16T06:53:16;19.50;;;5.20;;
79124;SDS011;68527;39.470;-0.376;2023-05-16T06:55:42;18.20;;;5.50;;
79124;SDS011;68527;39.470;-0.376;2023-05-16T06:58:08;19.70;;;5.50;;
79124;SDS011;68527;39.470;-0.376;2023-05-16T07:00:34;16.50;;;5.60;;
79124;SDS011;68527;39.470;-0.376;2023-05-16T07:03:00;15.10;;;5.20;;
79124;SDS011;68527;39.470;-0.376;2023-05-16T07:05:27;23.20;;;5.80;;
79124;SDS011;68527;39.470;-0.376;2023-05-16T07:07:57;31.70;;;5.70;;
79124;SDS011;68527;39.470;-0.376;2023-05-16T07:10:23;18.30;;;5.00;;
79124;SDS011;68527;39.470;-0.376;2023-05-16T07:12:49;18.50;;;4.90;;
79124;SDS011;68527;39.470;-0.376;2023-05-16T07:15:15;18.20;;;5.00;;
79124;SDS011;68527;39.470;-0.376;2023-05-16T07:17:41;16.40;;;5.10;;
79124;SDS011;68527;39.470;-0.376;2023-05-16T07:20:07;18.50;;;4.60;;
79124;SDS011;68527;39.470;-0.376;2023-05-16T07:22:37;21.60;;;4.50;;
79124;SDS011;68527;39.470;-0.376;2023-05-16T07:25:04;19.00;;;4.60;;
79124;SDS011;68527;39.470;-0.376;2023-05-16T07:27:30;14.50;;;4.10;;
79124;SDS011;68527;39.470;-0.376;2023-05-16T07:29:56;19.80;;;4.40;;
79124;SDS011;68527;39.470;-0.376;2023-05-16T07:32:22;15.40;;;4.10;;
79124;SDS011;68527;39.470;-0.376;2023-05-16T07:34:47;11.90;;;4.00;;
79124;SDS011;68527;39.470;-0.376;2023-05-16T07:37:13;15.20;;;4.10;;
79124;SDS011;68527;39.470;-0.376;2023-05-16T07:39:40;12.60;;;3.60;;
79124;SDS011;68527;39.470;-0.376;2023-05-16T07:42:07;11.80;;;3.20;;
79124;SDS011;68527;39.470;-0.376;2023-05-16T07:44:33;13.40;;;3.90;;
79124;SDS011;68527;39.470;-0.376;2023-05-16T07:46:59;12.60;;;3.90;;
79124;SDS011;68527;39.470;-0.376;2023-05-16T07:49:25;13.90;;;3.40;;
79124;SDS011;68527;39.470;-0.376;2023-05-16T07:51:50;11.80;;;3.40;;
79124;SDS011;68527;39.470;-0.376;2023-05-16T07:54:16;12.20;;;3.50;;
79124;SDS011;68527;39.470;-0.376;2023-05-16T07:56:42;11.10;;;4.00;;
79124;SDS011;68527;39.470;-0.376;2023-05-16T07:59:07;15.10;;;3.20;;
79124;SDS011;68527;39.470;-0.376;2023-05-16T08:01:33;10.70;;;3.40;;
79124;SDS011;68527;39.470;-0.376;2023-05-16T08:03:59;11.40;;;3.20;;
79124;SDS011;68527;39.470;-0.376;2023-05-16T08:06:25;11.20;;;3.10;;
79124;SDS011;68527;39.470;-0.376;2023-05-16T08:08:50;7.80;;;2.30;;
79124;SDS011;68527;39.470;-0.376;2023-05-16T08:13:42;6.50;;;2.50;;
79124;SDS011;68527;39.470;-0.376;2023-05-16T08:16:09;9.90;;;2.20;;
79124;SDS011;68527;39.470;-0.376;2023-05-16T08:18:35;7.70;;;2.30;;
79124;SDS011;68527;39.470;-0.376;2023-05-16T08:21:01;6.00;;;1.80;;
79124;SDS011;68527;39.470;-0.376;2023-05-16T08:23:27;8.70;;;2.70;;
79124;SDS011;68527;39.470;-0.376;2023-05-16T08:25:52;7.20;;;2.70;;
79124;SDS011;68527;39.470;-0.376;2023-05-16T08:28:18;7.00;;;2.60;;
79124;SDS011;68527;39.470;-0.376;2023-05-16T08:30:44;7.80;;;1.70;;
79124;SDS011;68527;39.470;-0.376;2023-05-16T08:33:10;6.60;;;1.90;;
79124;SDS011;68527;39.470;-0.376;2023-05-16T08:35:35;7.80;;;2.20;;
79124;SDS011;68527;39.470;-0.376;2023-05-16T08:38:01;8.30;;;2.10;;
79124;SDS011;68527;39.470;-0.376;2023-05-16T08:40:27;3.10;;;1.30;;
79124;SDS011;68527;39.470;-0.376;2023-05-16T08:42:53;8.20;;;1.70;;
79124;SDS011;68527;39.470;-0.376;2023-05-16T08:45:19;4.90;;;1.40;;
79124;SDS011;68527;39.470;-0.376;2023-05-16T08:47:47;7.00;;;1.40;;
79124;SDS011;68527;39.470;-0.376;2023-05-16T08:50:14;4.90;;;1.80;;
79124;SDS011;68527;39.470;-0.376;2023-05-16T08:52:40;5.90;;;1.60;;
79124;SDS011;68527;39.470;-0.376;2023-05-16T08:55:07;5.80;;;1.70;;
79124;SDS011;68527;39.470;-0.376;2023-05-16T08:57:37;3.70;;;1.40;;
79124;SDS011;68527;39.470;-0.376;2023-05-16T09:00:07;7.80;;;2.10;;
79124;SDS011;68527;39.470;-0.376;2023-05-16T09:02:36;5.40;;;1.40;;
79124;SDS011;68527;39.470;-0.376;2023-05-16T09:05:07;6.70;;;2.00;;
79124;SDS011;68527;39.470;-0.376;2023-05-16T09:07:34;5.80;;;1.90;;
79124;SDS011;68527;39.470;-0.376;2023-05-16T09:09:59;4.50;;;1.90;;
79124;SDS011;68527;39.470;-0.376;2023-05-16T09:12:25;5.70;;;1.70;;
79124;SDS011;68527;39.470;-0.376;2023-05-16T09:14:50;7.00;;;1.50;;
79124;SDS011;68527;39.470;-0.376;2023-05-16T09:17:16;6.70;;;1.80;;
79124;SDS011;68527;39.470;-0.376;2023-05-16T09:19:42;6.90;;;1.50;;
79124;SDS011;68527;39.470;-0.376;2023-05-16T09:22:10;5.20;;;1.60;;
79124;SDS011;68527;39.470;-0.376;2023-05-16T09:24:41;4.60;;;1.70;;
79124;SDS011;68527;39.470;-0.376;2023-05-16T09:27:11;5.10;;;1.70;;
79124;SDS011;68527;39.470;-0.376;2023-05-16T09:29:41;5.50;;;1.40;;
79124;SDS011;68527;39.470;-0.376;2023-05-16T09:32:14;5.90;;;1.40;;
79124;SDS011;68527;39.470;-0.376;2023-05-16T09:34:43;6.60;;;1.50;;
79124;SDS011;68527;39.470;-0.376;2023-05-16T09:37:12;4.10;;;1.20;;
79124;SDS011;68527;39.470;-0.376;2023-05-16T09:39:39;5.80;;;1.90;;
79124;SDS011;68527;39.470;-0.376;2023-05-16T09:42:10;6.10;;;1.70;;
79124;SDS011;68527;39.470;-0.376;2023-05-16T09:44:36;3.20;;;1.30;;
79124;SDS011;68527;39.470;-0.376;2023-05-16T09:47:02;4.60;;;1.50;;
79124;SDS011;68527;39.470;-0.376;2023-05-16T09:49:28;4.50;;;1.60;;
79124;SDS011;68527;39.470;-0.376;2023-05-16T09:51:54;5.10;;;1.60;;
79124;SDS011;68527;39.470;-0.376;2023-05-16T09:54:30;4.40;;;1.20;;
79124;SDS011;68527;39.470;-0.376;2023-05-16T09:56:57;4.90;;;1.40;;
79124;SDS011;68527;39.470;-0.376;2023-05-16T09:59:23;5.50;;;1.50;;
79124;SDS011;68527;39.470;-0.376;2023-05-16T10:01:48;4.10;;;1.70;;
79124;SDS011;68527;39.470;-0.376;2023-05-16T10:04:15;5.80;;;1.60;;
79124;SDS011;68527;39.470;-0.376;2023-05-16T10:06:41;5.80;;;1.80;;
79124;SDS011;68527;39.470;-0.376;2023-05-16T10:09:09;3.40;;;1.50;;
79124;SDS011;68527;39.470;-0.376;2023-05-16T10:11:36;4.90;;;1.70;;
79124;SDS011;68527;39.470;-0.376;2023-05-16T10:14:03;5.70;;;1.50;;
79124;SDS011;68527;39.470;-0.376;2023-05-16T10:16:30;2.70;;;1.30;;
79124;SDS011;68527;39.470;-0.376;2023-05-16T10:18:55;6.30;;;1.30;;
79124;SDS011;68527;39.470;-0.376;2023-05-16T10:21:22;5.20;;;1.60;;
79124;SDS011;68527;39.470;-0.376;2023-05-16T10:23:49;4.00;;;1.50;;
79124;SDS011;68527;39.470;-0.376;2023-05-16T10:26:16;6.90;;;1.40;;
79124;SDS011;68527;39.470;-0.376;2023-05-16T10:28:42;2.70;;;1.60;;
79124;SDS011;68527;39.470;-0.376;2023-05-16T10:31:10;5.40;;;1.20;;
79124;SDS011;68527;39.470;-0.376;2023-05-16T10:33:36;5.40;;;1.50;;
79124;SDS011;68527;39.470;-0.376;2023-05-16T10:36:01;4.70;;;1.20;;
79124;SDS011;68527;39.470;-0.376;2023-05-16T10:38:29;7.50;;;1.40;;
79124;SDS011;68527;39.470;-0.376;2023-05-16T10:40:54;7.70;;;1.50;;
79124;SDS011;68527;39.470;-0.376;2023-05-16T10:43:24;6.40;;;1.90;;
79124;SDS011;68527;39.470;-0.376;2023-05-16T10:45:55;8.70;;;1.70;;
79124;SDS011;68527;39.470;-0.376;2023-05-16T10:48:34;3.40;;;1.40;;
79124;SDS011;68527;39.470;-0.376;2023-05-16T10:51:01;4.00;;;1.30;;
79124;SDS011;68527;39.470;-0.376;2023-05-16T10:53:29;7.20;;;1.50;;
79124;SDS011;68527;39.470;-0.376;2023-05-16T11:14:08;4.60;;;1.30;;
79124;SDS011;68527;39.470;-0.376;2023-05-16T11:16:35;3.20;;;1.10;;
79124;SDS011;68527;39.470;-0.376;2023-05-16T11:19:04;5.20;;;1.20;;
79124;SDS011;68527;39.470;-0.376;2023-05-16T11:24:36;3.30;;;1.00;;
79124;SDS011;68527;39.470;-0.376;2023-05-16T11:27:03;4.20;;;1.10;;
79124;SDS011;68527;39.470;-0.376;2023-05-16T11:29:35;5.10;;;1.40;;
79124;SDS011;68527;39.470;-0.376;2023-05-16T11:32:03;6.50;;;1.50;;
79124;SDS011;68527;39.470;-0.376;2023-05-16T11:34:30;3.80;;;1.50;;
79124;SDS011;68527;39.470;-0.376;2023-05-16T11:36:57;2.30;;;1.40;;
79124;SDS011;68527;39.470;-0.376;2023-05-16T11:39:24;3.60;;;1.50;;
79124;SDS011;68527;39.470;-0.376;2023-05-16T11:41:50;3.90;;;1.10;;
79124;SDS011;68527;39.470;-0.376;2023-05-16T11:44:16;4.00;;;1.10;;
79124;SDS011;68527;39.470;-0.376;2023-05-16T11:46:42;2.70;;;1.40;;
79124;SDS011;68527;39.470;-0.376;2023-05-16T11:49:08;2.80;;;1.40;;
79124;SDS011;68527;39.470;-0.376;2023-05-16T11:51:41;4.70;;;1.50;;
79124;SDS011;68527;39.470;-0.376;2023-05-16T11:54:08;2.70;;;1.10;;
79124;SDS011;68527;39.470;-0.376;2023-05-16T11:56:34;4.90;;;1.50;;
79124;SDS011;68527;39.470;-0.376;2023-05-16T11:59:00;3.90;;;1.30;;
79124;SDS011;68527;39.470;-0.376;2023-05-16T12:01:33;4.00;;;1.20;;
79124;SDS011;68527;39.470;-0.376;2023-05-16T12:04:01;4.80;;;1.40;;
79124;SDS011;68527;39.470;-0.376;2023-05-16T12:06:28;1.80;;;1.10;;
79124;SDS011;68527;39.470;-0.376;2023-05-16T12:08:55;3.30;;;1.30;;
79124;SDS011;68527;39.470;-0.376;2023-05-16T12:11:22;3.10;;;1.30;;
79124;SDS011;68527;39.470;-0.376;2023-05-16T12:13:47;3.70;;;1.40;;
79124;SDS011;68527;39.470;-0.376;2023-05-16T12:16:13;3.00;;;1.60;;
79124;SDS011;68527;39.470;-0.376;2023-05-16T12:18:39;4.10;;;1.40;;
79124;SDS011;68527;39.470;-0.376;2023-05-16T12:21:05;2.00;;;1.00;;
79124;SDS011;68527;39.470;-0.376;2023-05-16T12:23:34;2.50;;;1.10;;
79124;SDS011;68527;39.470;-0.376;2023-05-16T12:26:01;2.90;;;1.30;;
79124;SDS011;68527;39.470;-0.376;2023-05-16T12:28:33;3.90;;;1.20;;
79124;SDS011;68527;39.470;-0.376;2023-05-16T12:31:00;2.30;;;1.40;;
79124;SDS011;68527;39.470;-0.376;2023-05-16T12:33:26;2.40;;;1.10;;
79124;SDS011;68527;39.470;-0.376;2023-05-16T12:35:51;1.90;;;1.20;;
79124;SDS011;68527;39.470;-0.376;2023-05-16T12:38:18;3.10;;;1.50;;
79124;SDS011;68527;39.470;-0.376;2023-05-16T12:40:45;1.50;;;1.10;;
79124;SDS011;68527;39.470;-0.376;2023-05-16T12:43:21;2.40;;;1.20;;
79124;SDS011;68527;39.470;-0.376;2023-05-16T12:45:56;2.70;;;1.10;;
79124;SDS011;68527;39.470;-0.376;2023-05-16T12:48:23;3.10;;;1.20;;
79124;SDS011;68527;39.470;-0.376;2023-05-16T12:53:19;3.50;;;1.20;;
79124;SDS011;68527;39.470;-0.376;2023-05-16T12:55:45;4.40;;;1.40;;
79124;SDS011;68527;39.470;-0.376;2023-05-16T12:58:11;2.20;;;1.30;;
79124;SDS011;68527;39.470;-0.376;2023-05-16T13:00:37;2.20;;;1.10;;
79124;SDS011;68527;39.470;-0.376;2023-05-16T13:03:05;2.40;;;1.30;;
79124;SDS011;68527;39.470;-0.376;2023-05-16T13:05:32;1.90;;;1.00;;
79124;SDS011;68527;39.470;-0.376;2023-05-16T13:07:59;3.70;;;1.30;;
79124;SDS011;68527;39.470;-0.376;2023-05-16T13:10:25;3.40;;;1.20;;
79124;SDS011;68527;39.470;-0.376;2023-05-16T13:12:51;3.20;;;1.10;;
79124;SDS011;68527;39.470;-0.376;2023-05-16T13:15:17;2.90;;;1.20;;
79124;SDS011;68527;39.470;-0.376;2023-05-16T13:17:43;1.90;;;1.30;;
79124;SDS011;68527;39.470;-0.376;2023-05-16T13:20:08;3.00;;;1.30;;
79124;SDS011;68527;39.470;-0.376;2023-05-16T13:22:41;4.00;;;1.40;;
79124;SDS011;68527;39.470;-0.376;2023-05-16T13:25:07;2.30;;;1.10;;
79124;SDS011;68527;39.470;-0.376;2023-05-16T13:27:34;3.80;;;1.30;;
79124;SDS011;68527;39.470;-0.376;2023-05-16T13:30:00;2.50;;;1.50;;
79124;SDS011;68527;39.470;-0.376;2023-05-16T13:32:26;2.00;;;1.20;;
79124;SDS011;68527;39.470;-0.376;2023-05-16T13:34:51;2.50;;;1.40;;
79124;SDS011;68527;39.470;-0.376;2023-05-16T13:37:17;2.00;;;1.50;;
79124;SDS011;68527;39.470;-0.376;2023-05-16T13:39:43;2.60;;;1.60;;
79124;SDS011;68527;39.470;-0.376;2023-05-16T13:42:09;2.70;;;1.40;;
79124;SDS011;68527;39.470;-0.376;2023-05-16T13:44:35;2.30;;;1.30;;
79124;SDS011;68527;39.470;-0.376;2023-05-16T13:47:01;4.00;;;1.40;;
79124;SDS011;68527;39.470;-0.376;2023-05-16T13:49:27;2.30;;;1.20;;
79124;SDS011;68527;39.470;-0.376;2023-05-16T13:51:53;3.10;;;1.40;;
79124;SDS011;68527;39.470;-0.376;2023-05-16T13:54:19;2.60;;;1.40;;
79124;SDS011;68527;39.470;-0.376;2023-05-16T13:56:46;2.20;;;1.20;;
79124;SDS011;68527;39.470;-0.376;2023-05-16T13:59:12;3.30;;;1.30;;
79124;SDS011;68527;39.470;-0.376;2023-05-16T14:01:38;2.60;;;1.40;;
79124;SDS011;68527;39.470;-0.376;2023-05-16T14:04:04;2.20;;;1.20;;
79124;SDS011;68527;39.470;-0.376;2023-05-16T14:06:29;3.00;;;1.30;;
79124;SDS011;68527;39.470;-0.376;2023-05-16T14:08:55;3.50;;;1.40;;
79124;SDS011;68527;39.470;-0.376;2023-05-16T14:11:21;1.90;;;1.10;;
79124;SDS011;68527;39.470;-0.376;2023-05-16T14:13:51;1.80;;;1.20;;
79124;SDS011;68527;39.470;-0.376;2023-05-16T14:16:19;2.30;;;1.10;;
79124;SDS011;68527;39.470;-0.376;2023-05-16T14:18:44;2.50;;;1.00;;
79124;SDS011;68527;39.470;-0.376;2023-05-16T14:21:10;3.30;;;1.00;;
79124;SDS011;68527;39.470;-0.376;2023-05-16T14:23:35;2.00;;;1.30;;
79124;SDS011;68527;39.470;-0.376;2023-05-16T14:26:01;2.20;;;1.20;;
79124;SDS011;68527;39.470;-0.376;2023-05-16T14:28:27;2.60;;;1.20;;
79124;SDS011;68527;39.470;-0.376;2023-05-16T14:30:53;2.90;;;1.30;;
79124;SDS011;68527;39.470;-0.376;2023-05-16T14:33:18;4.10;;;1.40;;
79124;SDS011;68527;39.470;-0.376;2023-05-16T14:35:44;2.50;;;1.20;;
79124;SDS011;68527;39.470;-0.376;2023-05-16T14:38:10;3.20;;;1.50;;
79124;SDS011;68527;39.470;-0.376;2023-05-16T14:40:35;3.10;;;1.40;;
79124;SDS011;68527;39.470;-0.376;2023-05-16T14:45:28;2.70;;;1.30;;
79124;SDS011;68527;39.470;-0.376;2023-05-16T14:47:54;2.90;;;1.20;;
79124;SDS011;68527;39.470;-0.376;2023-05-16T14:50:19;2.20;;;1.30;;
79124;SDS011;68527;39.470;-0.376;2023-05-16T14:52:45;4.10;;;1.10;;
79124;SDS011;68527;39.470;-0.376;2023-05-16T14:55:11;3.30;;;1.00;;
79124;SDS011;68527;39.470;-0.376;2023-05-16T14:57:36;3.30;;;1.20;;
79124;SDS011;68527;39.470;-0.376;2023-05-16T15:00:02;3.10;;;1.30;;
79124;SDS011;68527;39.470;-0.376;2023-05-16T15:02:29;2.20;;;1.10;;
79124;SDS011;68527;39.470;-0.376;2023-05-16T15:04:55;3.70;;;1.80;;
79124;SDS011;68527;39.470;-0.376;2023-05-16T15:07:21;4.00;;;1.50;;
79124;SDS011;68527;39.470;-0.376;2023-05-16T15:09:46;2.60;;;1.20;;
79124;SDS011;68527;39.470;-0.376;2023-05-16T15:12:12;5.70;;;1.30;;
79124;SDS011;68527;39.470;-0.376;2023-05-16T15:14:38;3.80;;;2.20;;
79124;SDS011;68527;39.470;-0.376;2023-05-16T15:17:03;4.20;;;1.30;;
79124;SDS011;68527;39.470;-0.376;2023-05-16T15:19:29;5.70;;;1.50;;
79124;SDS011;68527;39.470;-0.376;2023-05-16T15:21:55;3.70;;;1.40;;
79124;SDS011;68527;39.470;-0.376;2023-05-16T15:24:20;3.00;;;1.20;;
79124;SDS011;68527;39.470;-0.376;2023-05-16T15:26:46;2.90;;;1.30;;
79124;SDS011;68527;39.470;-0.376;2023-05-16T15:29:12;2.70;;;1.30;;
79124;SDS011;68527;39.470;-0.376;2023-05-16T15:31:37;3.30;;;1.20;;
79124;SDS011;68527;39.470;-0.376;2023-05-16T15:36:30;3.30;;;1.20;;
79124;SDS011;68527;39.470;-0.376;2023-05-16T15:38:55;2.80;;;1.20;;
79124;SDS011;68527;39.470;-0.376;2023-05-16T15:43:47;2.60;;;1.40;;
79124;SDS011;68527;39.470;-0.376;2023-05-16T15:46:13;3.20;;;1.00;;
79124;SDS011;68527;39.470;-0.376;2023-05-16T15:48:38;3.80;;;1.10;;
79124;SDS011;68527;39.470;-0.376;2023-05-16T15:51:11;3.50;;;1.30;;
79124;SDS011;68527;39.470;-0.376;2023-05-16T15:53:37;3.10;;;1.20;;
79124;SDS011;68527;39.470;-0.376;2023-05-16T15:56:03;2.40;;;0.90;;
79124;SDS011;68527;39.470;-0.376;2023-05-16T15:58:30;2.00;;;1.20;;
79124;SDS011;68527;39.470;-0.376;2023-05-16T16:00:55;4.10;;;1.30;;
79124;SDS011;68527;39.470;-0.376;2023-05-16T16:03:21;2.30;;;1.10;;
79124;SDS011;68527;39.470;-0.376;2023-05-16T16:08:13;2.50;;;1.00;;
79124;SDS011;68527;39.470;-0.376;2023-05-16T16:10:39;1.80;;;1.30;;
79124;SDS011;68527;39.470;-0.376;2023-05-16T16:13:04;2.40;;;1.10;;
79124;SDS011;68527;39.470;-0.376;2023-05-16T16:15:31;2.10;;;1.00;;
79124;SDS011;68527;39.470;-0.376;2023-05-16T16:17:57;3.70;;;1.20;;
79124;SDS011;68527;39.470;-0.376;2023-05-16T16:20:23;2.10;;;1.00;;
79124;SDS011;68527;39.470;-0.376;2023-05-16T16:22:51;2.10;;;1.20;;
79124;SDS011;68527;39.470;-0.376;2023-05-16T16:25:17;3.90;;;1.30;;
79124;SDS011;68527;39.470;-0.376;2023-05-16T16:27:43;2.20;;;1.20;;
79124;SDS011;68527;39.470;-0.376;2023-05-16T16:30:09;2.20;;;1.20;;